MSC Alexa — 3FPP6 — position and weather

sailwx.info

Track history (hours):
 
Tides and Currents Weather Stations Pressure Air Temp Water Temp Dewpoint Dewpoint Depression Visibility Wind Speed Wind Dir Waves Ship Positions

MSC Alexa

Last reported at 2015-Mar-11 19:12 UTC. Time now 2015-Mar-27 05:17 UTC.
Position S 22°57' W 041°50'.
Warning: this ship's position is 15 days out of date.

Length 243 m; draft 9.9 m.

Type: Ship (hazmat cat D). MMSI: 356904000.

Date/timePositionNaut miles runAvg speedWind from/ knotsBaromVisibWave heightAir tempDewpointWater temp
2015-Mar-11 19:12S 22°57' W 041°50'  
2015-Mar-08 09:33S 24°15' W 046°26'1514.9
2015-Mar-08 08:33S 24°01' W 046°20'6 5.6
2015-Mar-08 07:33S 23°55' W 046°20'1 0.6
2015-Mar-08 06:32S 23°55' W 046°21'0 0.0
2015-Mar-08 05:25S 23°55' W 046°21'0 0.0
2015-Mar-08 04:25S 23°55' W 046°21'0 0.0
2015-Mar-07 16:25S 23°55' W 046°21'0 0.0
2015-Mar-07 15:31S 23°55' W 046°21'0 0.0
2015-Mar-07 14:31S 23°55' W 046°21'0 0.0
2015-Mar-07 13:30S 23°55' W 046°21'0 0.0
2015-Mar-07 12:18S 23°55' W 046°21'0 0.6
2015-Mar-07 11:33S 23°55' W 046°20'5 5.2
2015-Mar-07 10:33S 24°00' W 046°20'21 4.1
2015-Mar-07 05:29S 24°21' W 046°15'  
Track history (hours):
 
Tides and Currents Weather Stations Pressure Air Temp Water Temp Dewpoint Dewpoint Depression Visibility Wind Speed Wind Dir Waves Ship Positions

MSC Alexa

Last reported at 2015-Mar-11 19:12 UTC. Time now 2015-Mar-27 05:17 UTC.
Position S 22°57' W 041°50'.
Warning: this ship's position is 15 days out of date.

Length 243 m; draft 9.9 m.

Type: Ship (hazmat cat D). MMSI: 356904000.

Date/timePositionNaut miles runAvg speedWind from/ knotsBaromVisibWave heightAir tempDewpointWater temp
2015-Mar-11 19:12S 22°57' W 041°50'  
2015-Mar-08 09:33S 24°15' W 046°26'1514.9
2015-Mar-08 08:33S 24°01' W 046°20'6 5.6
2015-Mar-08 07:33S 23°55' W 046°20'1 0.6
2015-Mar-08 06:32S 23°55' W 046°21'0 0.0
2015-Mar-08 05:25S 23°55' W 046°21'0 0.0
2015-Mar-08 04:25S 23°55' W 046°21'0 0.0
2015-Mar-07 16:25S 23°55' W 046°21'0 0.0
2015-Mar-07 15:31S 23°55' W 046°21'0 0.0
2015-Mar-07 14:31S 23°55' W 046°21'0 0.0
2015-Mar-07 13:30S 23°55' W 046°21'0 0.0
2015-Mar-07 12:18S 23°55' W 046°21'0 0.6
2015-Mar-07 11:33S 23°55' W 046°20'5 5.2
2015-Mar-07 10:33S 24°00' W 046°20'21 4.1
2015-Mar-07 05:29S 24°21' W 046°15'  

Dump ship's entire track history